Mazagao, Brazil
Current Conditions -  °F | °C
As of 1:00 PM on Monday 24 Nov 2014 (Local Time) from SBCJ Reporting Station
Scattered Clouds Scattered Clouds  
Wind Chill: 79°   Ceiling: Unl
Heat Index: 81°   Visibility: 6mi
Dew Point: 70°   Wind: 6mph
Humidity: 74%   Direction: 10°N
Pressure: 29.97"   Gusts: NA
Location:  7°S, 51.28°W
Report Text: SBCJ 241600Z 01005KT 9999 SCT016 26/21 Q1015
Loading
Personal Weather Stations






























Interactive Weather Map New forecast layout! Learn more

10-Day Weather Forecast

Advertisements
Track Severe Weather on mobile